Sites météorologiques /Documentations/ Programmes:

Météo Québec
Site web version 2
Modèle de Meteotemplate

CoCoRaHS Canada
Station CAN-QC-39

En Alerte
*** Système d'alerte
en urgence ***

Québec en Alerte

Météo Alerte Québec

Météo Centre

État des routes
Québec 511

Orage Québec

Québec Vortex
chasseurs de tempêtes

Hydro Météo (info-rivière)

Avalanche Québec

Agrométéo Québec

Bulletin des agriculteurs secteur Québec

Réseau Météo-Québec

Réseau Météo des Provinces Atlantiques

Réseau Météo Ontario

Séismes Canada
l'Est du Canada

Fire Smoke Canada

Canwarn Québec

Climat Québec

Environnement Canada

MétéoMédia

Leuven Template

Réseau de transport de la Capitale (RTC)


Équipements et logiciels de la station:

Davis Pro 2

Weather Display

Asus/Intel

Rapidenet Canada

Il n'y a aucun avertissement, veille ou avis météorologique en vigueur en ce moment.

Rapports d'observations METAR régionales et provinciales

   
CWPD - L'ÉTAPE
Mise à jour: 25-06-2019 21:00
PAS actuel
  
  
   
Température: 12°C
Point de rosée: 12°C
Humidité relative: 100%
CWPD 260100Z AUTO 19003KT 12/12 RMK AO1 0PAST HR 3008 SLP091 P0008 T01240119 50020
CYBG - BAGOTVILLE
Mise à jour: 25-06-2019 22:00
  
  
   
Température: 14°C
Point de rosée: 13°C
Humidité relative: 94%
Pression barométrique: 101.08 kPa
Nuages: Nuageux
visibilité: 9.7 km
Détails des nuages: Nuageux 4500 ft
CYBG 260200Z 09006KT 6SM -RA BR OVC045 14/13 A2985 RMK SC8 SLP112
CYRJ - ROBERVAL
Mise à jour: 25-06-2019 22:00
  
  
   
Température: 16°C
Point de rosée: 16°C
Humidité relative: 100%
Pression barométrique: 100.95 kPa
Nuages: Nuageux
visibilité: 19.3 km
Détails des nuages: Généralement nuageux 300 ft,
Nuageux 1700 ft
CYRJ 260200Z 11005KT 070V140 12SM BKN003 OVC017 16/16 A2981 RMK SF5SC3 SLP098 DENSITY ALT 1000FT
CYRQ - TROIS-RIVIÈRES
Mise à jour: 25-06-2019 22:24
  
  
   
Température: 17°C
Point de rosée: 17°C
Humidité relative: 100%
Pression barométrique: 101.02 kPa
Nuages: Nuageux
visibilité: 4.8 km
Détails des nuages: Nuageux 200 ft
CYRQ 260224Z AUTO 09004KT 3SM -RA OVC002 17/17 A2983 RMK PRESFR SLP102 DENSITY ALT 600FT
CYYY - MONT-JOLI
Mise à jour: 25-06-2019 22:00
  
  
   
Température: 21°C
Point de rosée: 7°C
Humidité relative: 40%
Pression barométrique: 101.19 kPa
Nuages: Nuageux
visibilité: 48.3 km
Détails des nuages: Nuageux 14000 ft
CYYY 260200Z 15012KT 30SM OVC140 21/07 A2988 RMK AC8 SLP119 DENSITY ALT 1000FT
CYUL - MONTRÉAL
Mise à jour: 25-06-2019 22:00
  
  
   
Température: 23°C
Point de rosée: 16°C
Humidité relative: 65%
Pression barométrique: 100.95 kPa
Nuages: Partiellement nuageux
visibilité: 24.1 km
Détails des nuages: Partiellement nuageux 5000 ft,
Partiellement nuageux 9000 ft
CYUL 260200Z 22010KT 15SM SCT050 SCT090 23/16 A2981 RMK SC3AC1 AC TR SLP098 DENSITY ALT 1200FT
CYQB - QUÉBEC
Mise à jour: 25-06-2019 22:17
  
  
   
Température: 16°C
Point de rosée: 15°C
Humidité relative: 94%
Pression barométrique: 101.12 kPa
Nuages: Nuageux
visibilité: 4.8 km
Détails des nuages: Généralement nuageux 300 ft,
Nuageux 1000 ft
CYQB 260217Z 06007KT 3SM -DZ BR BKN003 OVC010 16/15 A2986 RMK SF6ST2 SLP115 DENSITY ALT 500FT
CYRJ - SAGUENUAY
Mise à jour: 25-06-2019 22:00
  
  
   
Température: 16°C
Point de rosée: 16°C
Humidité relative: 100%
Pression barométrique: 100.95 kPa
Nuages: Nuageux
visibilité: 19.3 km
Détails des nuages: Généralement nuageux 300 ft,
Nuageux 1700 ft
CYRJ 260200Z 11005KT 070V140 12SM BKN003 OVC017 16/16 A2981 RMK SF5SC3 SLP098 DENSITY ALT 1000FT
CWZS - AMQUI
Mise à jour: 25-06-2019 22:00
  
  
   
Température: 18°C
Point de rosée: 7°C
Humidité relative: 49%
CWZS 260200Z AUTO 22001KT 18/07 RMK AO1 SLP139 T01790073 51014
CWOC - NEW CARLISLE
Mise à jour: 25-06-2019 22:00
  
  
   
Température: 13°C
Point de rosée: 9°C
Humidité relative: 77%
CWOC 260200Z AUTO 07004KT 13/09 RMK AO1 SLP168 T01320088 52013
CYBX - BLANC-SABLON
Mise à jour: 25-06-2019 22:00
  
  
   
Température: 7°C
Point de rosée: 6°C
Humidité relative: 93%
Pression barométrique: 101.86 kPa
Nuages: Généralement nuageux
visibilité: 24.1 km
Détails des nuages: Généralement nuageux 6000 ft
CYBX 260200Z 00000KT 15SM BKN060 07/06 A3008 RMK SC7 SLP188
CYAD - BAIE-JAMES
Mise à jour: 30-10-2015 16:00
PAS actuel
  
  
   
Température: -2°C
Facteur éolien: -8°C
Point de rosée: -4°C
Humidité relative: 86%
Pression barométrique: 100.51 kPa
Nuages: Nuageux
visibilité: 9.7 km
Détails des nuages: Nuageux 1200 ft
CYAD 302000Z 31011G17KT 6SM -SHSN OVC012 M02/M04 A2968 RMK SC7 LAST OBS/NEXT 021200 UTC SLP066
CYMT - CHIBOUGAMAU
Mise à jour: 25-06-2019 22:23
  
  
   
Température: 15°C
Point de rosée: 14°C
Humidité relative: 94%
Pression barométrique: 100.71 kPa
Nuages: Nuageux
visibilité: 8 km
Détails des nuages: Nuageux 700 ft
CYMT 260223Z AUTO 16008KT 5SM -RA BR OVC007 15/14 A2974 RMK SLP076 DENSITY ALT 1700FT
CYGR - ILES-DE-LA-MADELEINE
Mise à jour: 25-06-2019 22:00
  
  
   
Température: 11°C
Point de rosée: 8°C
Humidité relative: 82%
Pression barométrique: 101.96 kPa
Nuages: Dégagé
visibilité: 24.1 km
Détails des nuages: Dégagé
CYGR 260200Z 20003KT 170V230 15SM SKC 11/08 A3011 RMK LAST STFD OBS/NXT 260900Z SLP196
CWBY - PORT-MENIER
Mise à jour: 25-06-2019 22:00
  
  
   
Température: 14°C
Point de rosée: 7°C
Humidité relative: 63%
CWBY 260200Z AUTO 14007KT 14/07 RMK AO1 SLP152 T01390067 51006
CYZV - SEPT-ILES
Mise à jour: 25-06-2019 22:00
  
  
   
Température: 12°C
Point de rosée: 7°C
Humidité relative: 72%
Pression barométrique: 101.46 kPa
Nuages: Partiellement nuageux
visibilité: 24.1 km
Détails des nuages: Quelques nuages 21000 ft,
Partiellement nuageux 25000 ft
CYZV 260200Z 02004KT 15SM FEW210 SCT250 12/07 A2996 RMK CI2CI2 SLP147
CYGP - SHERBROOKE
Mise à jour: 25-06-2019 22:00
  
  
   
Température: 12°C
Point de rosée: 5°C
Humidité relative: 63%
Pression barométrique: 101.73 kPa
Nuages: Quelques nuages
visibilité: 24.1 km
Détails des nuages: Quelques nuages 24000 ft
CYGP 260200Z VRB03KT 15SM FEW240 12/05 A3004 RMK CI2 SLP173
CYZV - GATINEAU
Mise à jour: 25-06-2019 22:00
  
  
   
Température: 12°C
Point de rosée: 7°C
Humidité relative: 72%
Pression barométrique: 101.46 kPa
Nuages: Partiellement nuageux
visibilité: 24.1 km
Détails des nuages: Quelques nuages 21000 ft,
Partiellement nuageux 25000 ft
CYZV 260200Z 02004KT 15SM FEW210 SCT250 12/07 A2996 RMK CI2CI2 SLP147
CYOW - OTTAWA
Mise à jour: 25-06-2019 22:00
  
  
   
Température: 19°C
Point de rosée: 14°C
Humidité relative: 73%
Pression barométrique: 101.08 kPa
Nuages: Quelques nuages
visibilité: 24.1 km
Détails des nuages: Quelques nuages 5500 ft
CYOW 260200Z 25004KT 15SM FEW055 19/14 A2985 RMK SC1 SC TR SLP111 DENSITY ALT 1100FT
  

Script original développé par  Saratoga-weather.org Adapté pour le modèle par  Weerstation Leuven

Les données sont envoyées via ces sites météo:

WeatherCloud

Weather Underground

AWEKAS

HAMweather, WeatherForYou, PWS Weather